Time,TemperatureF,DewpointF,PressureIn,WindDirection,WindDirectionDegrees,WindSpeedMPH,WindSpeedGustMPH,Humidity,HourlyPrecipIn,Conditions,Clouds,dailyrainin,SoftwareType,DateUTC
2013-06-04 00:00:00,62.8,54.8,29.79,North,0,1.0,1.0,75,0.00,,---,0.00,VWS V14.00,2013-06-04 05:00:00,
2013-06-04 00:05:00,62.8,55.1,29.79,North,0,2.4,2.4,76,0.00,,---,0.00,VWS V14.00,2013-06-04 05:05:00,
2013-06-04 00:11:00,62.8,55.1,29.79,North,0,1.0,0.0,76,0.00,,---,0.00,VWS V14.00,2013-06-04 05:11:00,
2013-06-04 00:17:00,62.4,55.1,29.79,North,0,2.4,2.4,77,0.00,,---,0.00,VWS V14.00,2013-06-04 05:17:00,
2013-06-04 00:22:00,62.2,55.0,29.79,North,0,2.1,2.1,77,0.00,,---,0.00,VWS V14.00,2013-06-04 05:22:00,
2013-06-04 00:28:00,62.1,54.8,29.79,North,0,2.7,2.7,77,0.00,,---,0.00,VWS V14.00,2013-06-04 05:28:00,
2013-06-04 00:34:00,61.9,55.0,29.79,North,0,1.0,0.0,78,0.00,,---,0.00,VWS V14.00,2013-06-04 05:34:00,
2013-06-04 00:39:00,61.9,55.3,29.79,North,0,2.7,2.7,79,0.00,,---,0.00,VWS V14.00,2013-06-04 05:39:00,
2013-06-04 00:45:00,61.7,55.1,29.79,North,0,1.0,0.0,79,0.00,,---,0.00,VWS V14.00,2013-06-04 05:45:00,
2013-06-04 00:51:00,61.7,55.1,29.79,North,0,1.0,1.3,79,0.00,,---,0.00,VWS V14.00,2013-06-04 05:51:00,
2013-06-04 00:56:00,61.5,55.0,29.79,North,0,2.1,2.1,79,0.00,,---,0.00,VWS V14.00,2013-06-04 05:56:00,
2013-06-04 01:02:00,61.3,54.8,29.79,North,0,2.7,2.7,79,0.00,,---,0.00,VWS V14.00,2013-06-04 06:02:00,
2013-06-04 01:07:00,61.2,54.6,29.79,North,0,2.1,2.1,79,0.00,,---,0.00,VWS V14.00,2013-06-04 06:07:00,
2013-06-04 01:12:00,61.2,55.0,29.79,North,0,2.4,2.4,80,0.00,,---,0.00,VWS V14.00,2013-06-04 06:12:00,
2013-06-04 01:18:00,61.2,55.0,29.79,North,0,1.0,1.1,80,0.00,,---,0.00,VWS V14.00,2013-06-04 06:18:00,
2013-06-04 01:23:00,61.0,54.8,29.79,North,0,2.4,2.4,80,0.00,,---,0.00,VWS V14.00,2013-06-04 06:23:00,
2013-06-04 01:30:00,61.0,54.8,29.79,North,0,1.0,0.0,80,0.00,,---,0.00,VWS V14.00,2013-06-04 06:30:00,
2013-06-04 01:35:00,60.8,54.9,29.79,North,0,1.0,0.0,81,0.00,,---,0.00,VWS V14.00,2013-06-04 06:35:00,
2013-06-04 01:40:00,60.6,54.8,29.79,North,0,1.0,0.0,81,0.00,,---,0.00,VWS V14.00,2013-06-04 06:40:00,
2013-06-04 01:46:00,60.6,54.8,29.79,North,0,3.5,3.5,81,0.00,,---,0.00,VWS V14.00,2013-06-04 06:46:00,
2013-06-04 01:51:00,60.6,54.8,29.79,North,0,2.7,2.7,81,0.00,,---,0.00,VWS V14.00,2013-06-04 06:51:00,
2013-06-04 01:57:00,60.6,55.1,29.79,North,0,3.0,3.0,82,0.00,,---,0.00,VWS V14.00,2013-06-04 06:57:00,
2013-06-04 02:02:00,60.6,55.1,29.79,North,0,1.0,0.0,82,0.00,,---,0.00,VWS V14.00,2013-06-04 07:02:00,
2013-06-04 02:08:00,60.4,54.9,29.79,North,0,1.0,0.0,82,0.00,,---,0.00,VWS V14.00,2013-06-04 07:08:00,
2013-06-04 02:13:00,60.3,54.8,29.79,North,0,1.0,0.0,82,0.00,,---,0.00,VWS V14.00,2013-06-04 07:13:00,
2013-06-04 02:19:00,60.3,54.8,29.79,North,0,1.0,0.0,82,0.00,,---,0.00,VWS V14.00,2013-06-04 07:19:00,
2013-06-04 02:25:00,60.1,54.6,29.79,North,0,2.7,2.7,82,0.00,,---,0.00,VWS V14.00,2013-06-04 07:25:00,
2013-06-04 02:30:00,60.1,54.6,29.79,North,0,2.7,2.7,82,0.00,,---,0.00,VWS V14.00,2013-06-04 07:30:00,
2013-06-04 02:36:00,60.1,54.9,29.79,North,0,3.0,3.0,83,0.00,,---,0.00,VWS V14.00,2013-06-04 07:36:00,
2013-06-04 02:41:00,60.1,54.9,29.79,North,0,2.7,2.7,83,0.00,,---,0.00,VWS V14.00,2013-06-04 07:41:00,
2013-06-04 02:46:00,60.1,54.9,29.79,North,0,3.0,3.0,83,0.00,,---,0.00,VWS V14.00,2013-06-04 07:46:00,
2013-06-04 02:51:00,60.1,54.9,29.79,NNW,338,4.4,4.4,83,0.00,,---,0.00,VWS V14.00,2013-06-04 07:51:00,
2013-06-04 02:57:00,60.3,55.1,29.79,North,0,4.4,4.4,83,0.00,,---,0.00,VWS V14.00,2013-06-04 07:57:00,
2013-06-04 03:02:00,60.3,55.1,29.79,North,0,3.0,3.0,83,0.00,,---,0.00,VWS V14.00,2013-06-04 08:02:00,
2013-06-04 03:07:00,60.3,55.1,29.79,North,0,1.0,1.1,83,0.00,,---,0.00,VWS V14.00,2013-06-04 08:07:00,
2013-06-04 03:13:00,60.3,55.1,29.79,North,0,1.0,0.0,83,0.00,,---,0.00,VWS V14.00,2013-06-04 08:13:00,
2013-06-04 03:18:00,60.3,55.1,29.79,North,0,1.0,0.0,83,0.00,,---,0.00,VWS V14.00,2013-06-04 08:18:00,
2013-06-04 03:24:00,60.3,55.1,29.79,North,0,1.0,0.0,83,0.00,,---,0.00,VWS V14.00,2013-06-04 08:24:00,
2013-06-04 03:29:00,60.3,55.1,29.79,North,0,3.0,3.0,83,0.00,,---,0.00,VWS V14.00,2013-06-04 08:29:00,
2013-06-04 03:35:00,60.4,55.6,29.79,North,0,3.0,3.0,84,0.00,,---,0.00,VWS V14.00,2013-06-04 08:35:00,
2013-06-04 03:41:00,60.4,55.6,29.79,North,0,1.0,1.3,84,0.00,,---,0.00,VWS V14.00,2013-06-04 08:41:00,
2013-06-04 03:46:00,60.3,55.4,29.79,North,0,2.7,2.7,84,0.00,,---,0.00,VWS V14.00,2013-06-04 08:46:00,
2013-06-04 03:52:00,60.4,55.6,29.79,North,0,4.1,4.1,84,0.00,,---,0.00,VWS V14.00,2013-06-04 08:52:00,
2013-06-04 03:57:00,60.4,55.6,29.79,North,0,3.5,3.5,84,0.00,,---,0.00,VWS V14.00,2013-06-04 08:57:00,
2013-06-04 04:03:00,60.3,55.4,29.79,North,0,2.4,2.4,84,0.00,,---,0.00,VWS V14.00,2013-06-04 09:03:00,
2013-06-04 04:09:00,60.3,55.4,29.79,North,0,1.0,0.0,84,0.00,,---,0.00,VWS V14.00,2013-06-04 09:09:00,
2013-06-04 04:14:00,60.1,55.2,29.79,North,0,2.1,2.1,84,0.00,,---,0.00,VWS V14.00,2013-06-04 09:14:00,
2013-06-04 04:20:00,60.1,55.2,29.79,North,0,2.4,2.4,84,0.00,,---,0.00,VWS V14.00,2013-06-04 09:20:00,
2013-06-04 04:25:00,59.9,55.1,29.79,North,0,2.4,2.4,84,0.00,,---,0.00,VWS V14.00,2013-06-04 09:25:00,
2013-06-04 04:30:00,59.7,55.2,29.79,North,0,2.4,2.4,85,0.00,,---,0.00,VWS V14.00,2013-06-04 09:30:00,
2013-06-04 04:35:00,59.7,55.2,29.79,North,0,4.1,4.1,85,0.00,,---,0.00,VWS V14.00,2013-06-04 09:35:00,
2013-06-04 04:40:00,59.7,55.2,29.79,North,0,2.7,2.7,85,0.00,,---,0.00,VWS V14.00,2013-06-04 09:40:00,
2013-06-04 04:45:00,59.7,55.2,29.79,North,0,3.0,3.0,85,0.00,,---,0.00,VWS V14.00,2013-06-04 09:45:00,
2013-06-04 04:51:00,59.7,55.5,29.79,North,0,3.8,3.8,86,0.00,,---,0.00,VWS V14.00,2013-06-04 09:51:00,
2013-06-04 04:56:00,59.7,55.5,29.79,North,0,2.1,2.1,86,0.00,,---,0.00,VWS V14.00,2013-06-04 09:56:00,
2013-06-04 05:01:00,59.7,55.5,29.79,North,0,1.0,0.0,86,0.00,,---,0.00,VWS V14.00,2013-06-04 10:01:00,
2013-06-04 05:07:00,59.7,55.5,29.79,North,0,2.4,2.4,86,0.00,,---,0.00,VWS V14.00,2013-06-04 10:07:00,
2013-06-04 05:12:00,59.7,55.5,29.79,North,0,1.0,0.0,86,0.00,,---,0.00,VWS V14.00,2013-06-04 10:12:00,
2013-06-04 05:17:00,59.7,55.5,29.76,North,0,2.1,2.1,86,0.00,,---,0.00,VWS V14.00,2013-06-04 10:17:00,
2013-06-04 05:23:00,59.7,55.8,29.76,North,0,1.0,1.1,87,0.00,,---,0.00,VWS V14.00,2013-06-04 10:23:00,
2013-06-04 05:29:00,59.7,55.8,29.76,North,0,2.1,2.1,87,0.00,,---,0.00,VWS V14.00,2013-06-04 10:29:00,
2013-06-04 05:34:00,59.9,56.0,29.76,North,0,2.4,2.4,87,0.00,,---,0.00,VWS V14.00,2013-06-04 10:34:00,
2013-06-04 05:39:00,59.9,56.0,29.76,North,0,3.5,3.5,87,0.00,,---,0.00,VWS V14.00,2013-06-04 10:39:00,
2013-06-04 05:45:00,60.1,56.2,29.76,North,0,1.0,1.1,87,0.00,,---,0.00,VWS V14.00,2013-06-04 10:45:00,
2013-06-04 05:51:00,60.1,56.2,29.79,North,0,2.4,2.4,87,0.00,,---,0.00,VWS V14.00,2013-06-04 10:51:00,
2013-06-04 05:56:00,60.1,56.2,29.79,North,0,2.7,2.7,87,0.00,,---,0.00,VWS V14.00,2013-06-04 10:56:00,
2013-06-04 06:01:00,60.1,56.2,29.79,NW,315,2.7,2.7,87,0.00,,---,0.00,VWS V14.00,2013-06-04 11:01:00,
2013-06-04 06:07:00,60.1,56.2,29.79,NW,315,2.7,2.7,87,0.00,,---,0.00,VWS V14.00,2013-06-04 11:07:00,
2013-06-04 06:12:00,60.4,56.6,29.79,NW,315,3.0,3.0,87,0.00,,---,0.00,VWS V14.00,2013-06-04 11:12:00,
2013-06-04 06:17:00,60.4,56.9,29.79,NW,315,2.1,2.1,88,0.00,,---,0.00,VWS V14.00,2013-06-04 11:17:00,
2013-06-04 06:23:00,60.6,57.0,29.79,NW,315,2.4,2.4,88,0.00,,---,0.00,VWS V14.00,2013-06-04 11:23:00,
2013-06-04 06:28:00,61.0,57.1,29.79,NW,315,1.0,0.0,87,0.00,,---,0.00,VWS V14.00,2013-06-04 11:28:00,
2013-06-04 06:34:00,61.2,57.3,29.79,NW,315,2.7,2.7,87,0.00,,---,0.00,VWS V14.00,2013-06-04 11:34:00,
2013-06-04 06:40:00,61.3,57.4,29.79,NNW,338,3.0,3.0,87,0.00,,---,0.00,VWS V14.00,2013-06-04 11:40:00,
2013-06-04 06:45:00,61.7,57.8,29.79,North,0,4.1,4.1,87,0.00,,---,0.00,VWS V14.00,2013-06-04 11:45:00,
2013-06-04 06:51:00,62.1,58.2,29.79,North,0,3.5,3.5,87,0.00,,---,0.00,VWS V14.00,2013-06-04 11:51:00,
2013-06-04 06:56:00,62.4,58.5,29.79,North,0,2.4,2.4,87,0.00,,---,0.00,VWS V14.00,2013-06-04 11:56:00,
2013-06-04 07:02:00,62.8,58.5,29.82,North,0,2.7,2.7,86,0.00,,---,0.00,VWS V14.00,2013-06-04 12:02:00,
2013-06-04 07:07:00,63.0,58.7,29.82,North,0,3.5,3.5,86,0.00,,---,0.00,VWS V14.00,2013-06-04 12:07:00,
2013-06-04 07:12:00,63.5,58.9,29.82,North,0,1.0,1.0,85,0.00,,---,0.00,VWS V14.00,2013-06-04 12:12:00,
2013-06-04 07:17:00,63.7,58.8,29.82,North,0,3.5,3.5,84,0.00,,---,0.00,VWS V14.00,2013-06-04 12:17:00,
2013-06-04 07:24:00,64.0,58.8,29.82,North,0,1.0,0.0,83,0.00,,---,0.00,VWS V14.00,2013-06-04 12:24:00,
2013-06-04 07:30:00,64.4,58.8,29.82,North,0,1.0,1.3,82,0.00,,---,0.00,VWS V14.00,2013-06-04 12:30:00,
2013-06-04 07:36:00,64.6,59.0,29.82,NE,45,1.0,0.0,82,0.00,,---,0.00,VWS V14.00,2013-06-04 12:36:00,
2013-06-04 07:42:00,64.8,58.8,29.82,SSW,202,2.1,2.1,81,0.00,,---,0.00,VWS V14.00,2013-06-04 12:42:00,
2013-06-04 07:47:00,64.9,58.6,29.82,SE,135,3.0,3.0,80,0.00,,---,0.00,VWS V14.00,2013-06-04 12:47:00,
2013-06-04 07:52:00,65.1,58.8,29.82,ENE,68,1.0,0.0,80,0.00,,---,0.00,VWS V14.00,2013-06-04 12:52:00,
2013-06-04 07:58:00,65.5,58.8,29.82,ESE,112,3.0,3.0,79,0.00,,---,0.00,VWS V14.00,2013-06-04 12:58:00,
2013-06-04 08:04:00,65.7,58.6,29.82,ESE,112,2.4,2.4,78,0.00,,---,0.00,VWS V14.00,2013-06-04 13:04:00,
2013-06-04 08:09:00,65.8,58.1,29.82,ESE,112,2.1,3.4,76,0.00,,---,0.00,VWS V14.00,2013-06-04 13:09:00,
2013-06-04 08:15:00,66.2,58.4,29.82,NW,315,3.0,3.0,76,0.00,,---,0.00,VWS V14.00,2013-06-04 13:15:00,
2013-06-04 08:20:00,66.6,58.0,29.82,ESE,112,4.4,4.4,74,0.00,,---,0.00,VWS V14.00,2013-06-04 13:20:00,
2013-06-04 08:25:00,66.7,58.2,29.82,South,180,2.4,2.4,74,0.00,,---,0.00,VWS V14.00,2013-06-04 13:25:00,
2013-06-04 08:30:00,67.1,58.2,29.82,NW,315,2.7,2.7,73,0.00,,---,0.00,VWS V14.00,2013-06-04 13:30:00,
2013-06-04 08:35:00,67.3,58.3,29.82,SW,225,4.6,4.6,73,0.00,,---,0.00,VWS V14.00,2013-06-04 13:35:00,
2013-06-04 08:40:00,67.5,57.7,29.82,NW,315,2.4,2.9,71,0.00,,---,0.00,VWS V14.00,2013-06-04 13:40:00,
2013-06-04 08:47:00,67.8,58.5,29.82,ESE,112,4.4,4.7,72,0.00,,---,0.00,VWS V14.00,2013-06-04 13:47:00,
2013-06-04 08:52:00,68.4,58.2,29.82,North,0,2.7,2.7,70,0.00,,---,0.00,VWS V14.00,2013-06-04 13:52:00,
2013-06-04 08:57:00,68.5,58.4,29.82,SE,135,4.9,4.9,70,0.00,,---,0.00,VWS V14.00,2013-06-04 13:57:00,
2013-06-04 09:02:00,68.9,58.3,29.79,SE,135,3.5,3.6,69,0.00,,---,0.00,VWS V14.00,2013-06-04 14:02:00,
2013-06-04 09:08:00,69.3,58.7,29.79,WSW,248,2.4,3.6,69,0.00,,---,0.00,VWS V14.00,2013-06-04 14:08:00,
2013-06-04 09:14:00,69.4,58.4,29.79,SE,135,8.6,8.6,68,0.00,,---,0.00,VWS V14.00,2013-06-04 14:14:00,
2013-06-04 09:19:00,69.6,58.2,29.82,WNW,292,2.1,2.7,67,0.00,,---,0.00,VWS V14.00,2013-06-04 14:19:00,
2013-06-04 09:25:00,70.0,57.7,29.82,SE,135,4.9,4.9,65,0.00,,---,0.00,VWS V14.00,2013-06-04 14:25:00,
2013-06-04 09:30:00,70.5,59.0,29.82,SE,135,4.9,4.9,67,0.00,,---,0.00,VWS V14.00,2013-06-04 14:30:00,
2013-06-04 09:36:00,70.9,59.0,29.79,ESE,112,8.3,8.3,66,0.00,,---,0.00,VWS V14.00,2013-06-04 14:36:00,
2013-06-04 09:42:00,71.2,58.9,29.79,NNW,338,4.1,4.7,65,0.00,,---,0.00,VWS V14.00,2013-06-04 14:42:00,
2013-06-04 09:47:00,71.6,58.3,29.79,SSE,158,4.4,4.9,63,0.00,,---,0.00,VWS V14.00,2013-06-04 14:47:00,
2013-06-04 09:54:00,72.0,59.1,29.79,ESE,112,5.8,5.8,64,0.00,,---,0.00,VWS V14.00,2013-06-04 14:54:00,
2013-06-04 09:59:00,72.3,58.6,29.79,ENE,68,8.0,8.0,62,0.00,,---,0.00,VWS V14.00,2013-06-04 14:59:00,
2013-06-04 10:04:00,72.7,59.4,29.79,ESE,112,3.8,5.4,63,0.00,,---,0.00,VWS V14.00,2013-06-04 15:04:00,
2013-06-04 10:10:00,73.0,59.7,29.79,ESE,112,4.6,4.6,63,0.00,,---,0.00,VWS V14.00,2013-06-04 15:10:00,
2013-06-04 10:15:00,73.8,60.4,29.79,SSE,158,5.5,6.5,63,0.00,,---,0.00,VWS V14.00,2013-06-04 15:15:00,
2013-06-04 10:20:00,73.9,60.1,29.79,SE,135,4.1,5.6,62,0.00,,---,0.00,VWS V14.00,2013-06-04 15:20:00,
2013-06-04 10:26:00,74.3,59.1,29.79,SE,135,7.2,7.2,59,0.00,,---,0.00,VWS V14.00,2013-06-04 15:26:00,
2013-06-04 10:32:00,75.0,60.7,29.79,SE,135,3.0,4.3,61,0.00,,---,0.00,VWS V14.00,2013-06-04 15:32:00,
2013-06-04 10:37:00,75.4,60.1,29.79,East,90,4.1,4.1,59,0.00,,---,0.00,VWS V14.00,2013-06-04 15:37:00,
2013-06-04 10:42:00,75.7,59.9,29.79,ESE,112,6.3,6.3,58,0.00,,---,0.00,VWS V14.00,2013-06-04 15:42:00,
2013-06-04 10:47:00,76.1,58.8,29.79,SE,135,3.8,5.8,55,0.00,,---,0.00,VWS V14.00,2013-06-04 15:47:00,
2013-06-04 10:54:00,76.5,59.6,29.79,ESE,112,2.7,3.8,56,0.00,,---,0.00,VWS V14.00,2013-06-04 15:54:00,
2013-06-04 10:59:00,77.0,60.1,29.79,ESE,112,4.9,4.9,56,0.00,,---,0.00,VWS V14.00,2013-06-04 15:59:00,
2013-06-04 11:05:00,77.0,58.6,29.79,ESE,112,6.3,6.3,53,0.00,,---,0.00,VWS V14.00,2013-06-04 16:05:00,
2013-06-04 11:10:00,77.5,58.0,29.79,SE,135,3.0,4.3,51,0.00,,---,0.00,VWS V14.00,2013-06-04 16:10:00,
2013-06-04 11:15:00,78.3,59.2,29.79,SE,135,4.4,6.3,52,0.00,,---,0.00,VWS V14.00,2013-06-04 16:15:00,
2013-06-04 11:21:00,78.6,60.1,29.79,ESE,112,6.6,6.6,53,0.00,,---,0.00,VWS V14.00,2013-06-04 16:21:00,
2013-06-04 11:26:00,79.0,59.3,29.79,East,90,6.3,6.3,51,0.00,,---,0.00,VWS V14.00,2013-06-04 16:26:00,
2013-06-04 11:33:00,79.0,59.3,29.79,ESE,112,8.6,8.6,51,0.00,,---,0.00,VWS V14.00,2013-06-04 16:33:00,
2013-06-04 11:38:00,79.5,59.8,29.79,SE,135,8.3,8.3,51,0.00,,---,0.00,VWS V14.00,2013-06-04 16:38:00,
2013-06-04 11:43:00,79.9,59.6,29.79,ESE,112,3.5,3.5,50,0.00,,---,0.00,VWS V14.00,2013-06-04 16:43:00,
2013-06-04 11:49:00,79.9,59.0,29.79,North,0,3.5,3.5,49,0.00,,---,0.00,VWS V14.00,2013-06-04 16:49:00,
2013-06-04 11:54:00,80.4,60.7,29.79,South,180,8.0,8.0,51,0.00,,---,0.00,VWS V14.00,2013-06-04 16:54:00,
2013-06-04 11:59:00,80.8,61.0,29.79,SSE,158,10.2,10.2,51,0.00,,---,0.00,VWS V14.00,2013-06-04 16:59:00,
2013-06-04 12:04:00,80.8,61.5,29.82,WNW,292,5.2,5.2,52,0.00,,---,0.00,VWS V14.00,2013-06-04 17:04:00,
2013-06-04 12:10:00,81.5,61.7,29.82,North,0,3.0,3.0,51,0.00,,---,0.00,VWS V14.00,2013-06-04 17:10:00,
2013-06-04 12:15:00,82.2,61.2,29.82,NW,315,3.5,3.8,49,0.00,,---,0.00,VWS V14.00,2013-06-04 17:15:00,
2013-06-04 12:20:00,82.4,61.3,29.82,SSW,202,3.5,3.5,49,0.00,,---,0.00,VWS V14.00,2013-06-04 17:20:00,
2013-06-04 12:25:00,82.2,60.6,29.82,SE,135,4.1,4.1,48,0.00,,---,0.00,VWS V14.00,2013-06-04 17:25:00,
2013-06-04 12:31:00,82.2,61.2,29.79,ESE,112,4.1,4.1,49,0.00,,---,0.00,VWS V14.00,2013-06-04 17:31:00,
2013-06-04 12:37:00,82.8,61.7,29.79,SSW,202,6.3,6.3,49,0.00,,---,0.00,VWS V14.00,2013-06-04 17:37:00,
2013-06-04 12:43:00,83.1,60.8,29.79,South,180,2.1,4.0,47,0.00,,---,0.00,VWS V14.00,2013-06-04 17:43:00,
2013-06-04 12:48:00,83.1,60.8,29.82,SW,225,2.7,2.7,47,0.00,,---,0.00,VWS V14.00,2013-06-04 17:48:00,
2013-06-04 12:53:00,83.1,59.0,29.82,WSW,248,1.0,1.3,44,0.00,,---,0.00,VWS V14.00,2013-06-04 17:53:00,
2013-06-04 13:00:00,82.9,60.7,29.82,SE,135,5.8,5.8,47,0.00,,---,0.00,VWS V14.00,2013-06-04 18:00:00,
2013-06-04 13:05:00,82.6,57.8,29.79,ESE,112,2.7,2.9,43,0.00,,---,0.00,VWS V14.00,2013-06-04 18:05:00,
2013-06-04 13:11:00,82.2,58.2,29.79,SE,135,3.8,3.8,44,0.00,,---,0.00,VWS V14.00,2013-06-04 18:11:00,
2013-06-04 13:16:00,83.1,59.6,29.79,SE,135,5.2,5.4,45,0.00,,---,0.00,VWS V14.00,2013-06-04 18:16:00,
2013-06-04 13:22:00,83.3,59.8,29.79,SE,135,4.1,4.1,45,0.00,,---,0.00,VWS V14.00,2013-06-04 18:22:00,
2013-06-04 13:27:00,82.4,56.4,29.79,East,90,4.4,4.4,41,0.00,,---,0.00,VWS V14.00,2013-06-04 18:27:00,
2013-06-04 13:32:00,82.4,57.7,29.79,NE,45,2.4,2.4,43,0.00,,---,0.00,VWS V14.00,2013-06-04 18:32:00,
2013-06-04 13:37:00,82.0,56.0,29.79,NW,315,2.4,2.4,41,0.00,,---,0.00,VWS V14.00,2013-06-04 18:37:00,
2013-06-04 13:42:00,81.7,55.7,29.79,North,0,4.6,4.6,41,0.00,,---,0.00,VWS V14.00,2013-06-04 18:42:00,
2013-06-04 13:49:00,81.5,55.5,29.79,North,0,5.2,5.2,41,0.00,,---,0.00,VWS V14.00,2013-06-04 18:49:00,
2013-06-04 13:54:00,81.5,55.5,29.79,NNW,338,3.5,3.5,41,0.00,,---,0.00,VWS V14.00,2013-06-04 18:54:00,
2013-06-04 13:59:00,81.3,55.4,29.79,North,0,2.4,2.4,41,0.00,,---,0.00,VWS V14.00,2013-06-04 18:59:00,
2013-06-04 14:05:00,81.3,56.1,29.76,NE,45,3.5,3.6,42,0.00,,---,0.00,VWS V14.00,2013-06-04 19:05:00,
2013-06-04 14:11:00,81.7,56.4,29.76,ESE,112,4.4,4.4,42,0.00,,---,0.00,VWS V14.00,2013-06-04 19:11:00,
2013-06-04 14:17:00,82.6,56.5,29.76,SE,135,5.8,5.8,41,0.00,,---,0.00,VWS V14.00,2013-06-04 19:17:00,
2013-06-04 14:23:00,82.8,56.0,29.76,North,0,4.6,4.6,40,0.00,,---,0.00,VWS V14.00,2013-06-04 19:23:00,
2013-06-04 14:28:00,82.9,56.8,29.76,North,0,2.7,2.7,41,0.00,,---,0.00,VWS V14.00,2013-06-04 19:28:00,
2013-06-04 14:33:00,82.6,56.5,29.76,ESE,112,8.8,8.8,41,0.00,,---,0.00,VWS V14.00,2013-06-04 19:33:00,
2013-06-04 14:38:00,82.0,56.0,29.76,SE,135,2.4,3.4,41,0.00,,---,0.00,VWS V14.00,2013-06-04 19:38:00,
2013-06-04 14:44:00,81.7,55.7,29.76,NNW,338,3.5,3.5,41,0.00,,---,0.00,VWS V14.00,2013-06-04 19:44:00,
2013-06-04 14:49:00,81.1,55.2,29.76,NNW,338,3.0,3.0,41,0.00,,---,0.00,VWS V14.00,2013-06-04 19:49:00,
2013-06-04 14:56:00,81.0,55.7,29.76,SSE,158,5.5,5.5,42,0.00,,---,0.00,VWS V14.00,2013-06-04 19:56:00,
2013-06-04 15:02:00,81.1,55.9,29.76,ESE,112,5.8,5.8,42,0.00,,---,0.00,VWS V14.00,2013-06-04 20:02:00,
2013-06-04 15:07:00,81.3,56.1,29.76,SSE,158,3.5,3.6,42,0.00,,---,0.00,VWS V14.00,2013-06-04 20:07:00,
2013-06-04 15:12:00,81.1,55.9,29.76,SE,135,2.4,2.4,42,0.00,,---,0.00,VWS V14.00,2013-06-04 20:12:00,
2013-06-04 15:19:00,81.3,56.1,29.76,NNW,338,7.2,7.2,42,0.00,,---,0.00,VWS V14.00,2013-06-04 20:19:00,
2013-06-04 15:24:00,81.5,55.5,29.76,NNW,338,4.6,4.6,41,0.00,,---,0.00,VWS V14.00,2013-06-04 20:24:00,
2013-06-04 15:29:00,82.2,56.9,29.76,North,0,4.6,4.6,42,0.00,,---,0.00,VWS V14.00,2013-06-04 20:29:00,
2013-06-04 15:34:00,82.2,55.5,29.76,NNW,338,3.0,3.4,40,0.00,,---,0.00,VWS V14.00,2013-06-04 20:34:00,
2013-06-04 15:40:00,82.4,55.7,29.76,WNW,292,3.0,3.0,40,0.00,,---,0.00,VWS V14.00,2013-06-04 20:40:00,
2013-06-04 15:46:00,82.4,55.7,29.76,East,90,1.0,2.9,40,0.00,,---,0.00,VWS V14.00,2013-06-04 20:46:00,
2013-06-04 15:51:00,81.9,54.5,29.76,NW,315,2.1,2.5,39,0.00,,---,0.00,VWS V14.00,2013-06-04 20:51:00,
2013-06-04 15:58:00,82.2,56.2,29.76,ESE,112,6.0,6.0,41,0.00,,---,0.00,VWS V14.00,2013-06-04 20:58:00,
2013-06-04 16:04:00,82.6,55.1,29.74,SE,135,7.2,7.2,39,0.00,,---,0.00,VWS V14.00,2013-06-04 21:04:00,
2013-06-04 16:10:00,82.8,55.3,29.74,East,90,3.5,3.5,39,0.00,,---,0.00,VWS V14.00,2013-06-04 21:10:00,
2013-06-04 16:15:00,82.8,55.3,29.74,NW,315,4.6,4.6,39,0.00,,---,0.00,VWS V14.00,2013-06-04 21:15:00,
2013-06-04 16:22:00,82.6,55.1,29.76,NW,315,2.4,3.1,39,0.00,,---,0.00,VWS V14.00,2013-06-04 21:22:00,
2013-06-04 16:27:00,82.4,55.0,29.76,ESE,112,2.4,2.5,39,0.00,,---,0.00,VWS V14.00,2013-06-04 21:27:00,
2013-06-04 16:32:00,82.0,54.7,29.74,ESE,112,3.0,3.0,39,0.00,,---,0.00,VWS V14.00,2013-06-04 21:32:00,
2013-06-04 16:37:00,81.7,55.0,29.74,North,0,5.8,5.8,40,0.00,,---,0.00,VWS V14.00,2013-06-04 21:37:00,
2013-06-04 16:44:00,81.5,54.2,29.74,ESE,112,4.4,4.4,39,0.00,,---,0.00,VWS V14.00,2013-06-04 21:44:00,
2013-06-04 16:49:00,81.9,55.9,29.74,SSE,158,6.0,7.2,41,0.00,,---,0.00,VWS V14.00,2013-06-04 21:49:00,
2013-06-04 16:54:00,82.4,55.7,29.74,SSW,202,3.8,5.6,40,0.00,,---,0.00,VWS V14.00,2013-06-04 21:54:00,
2013-06-04 17:00:00,82.2,55.5,29.74,ENE,68,4.1,4.1,40,0.00,,---,0.00,VWS V14.00,2013-06-04 22:00:00,
2013-06-04 17:05:00,82.0,54.7,29.74,NW,315,3.5,3.5,39,0.00,,---,0.00,VWS V14.00,2013-06-04 22:05:00,
2013-06-04 17:11:00,82.0,54.7,29.74,North,0,2.4,4.3,39,0.00,,---,0.00,VWS V14.00,2013-06-04 22:11:00,
2013-06-04 17:16:00,81.5,54.2,29.74,WNW,292,3.8,3.8,39,0.00,,---,0.00,VWS V14.00,2013-06-04 22:16:00,
2013-06-04 17:22:00,81.0,54.4,29.74,ESE,112,3.0,3.0,40,0.00,,---,0.00,VWS V14.00,2013-06-04 22:22:00,
2013-06-04 17:27:00,81.1,54.5,29.74,NW,315,3.0,3.0,40,0.00,,---,0.00,VWS V14.00,2013-06-04 22:27:00,
2013-06-04 17:32:00,80.8,54.2,29.74,NNW,338,3.0,3.0,40,0.00,,---,0.00,VWS V14.00,2013-06-04 22:32:00,
2013-06-04 17:38:00,80.8,53.5,29.74,East,90,3.5,3.5,39,0.00,,---,0.00,VWS V14.00,2013-06-04 22:38:00,
2013-06-04 17:44:00,81.0,53.7,29.74,NW,315,4.6,4.6,39,0.00,,---,0.00,VWS V14.00,2013-06-04 22:44:00,
2013-06-04 17:49:00,81.5,54.9,29.74,ESE,112,5.2,5.2,40,0.00,,---,0.00,VWS V14.00,2013-06-04 22:49:00,
2013-06-04 17:54:00,81.1,54.5,29.74,North,0,5.2,5.2,40,0.00,,---,0.00,VWS V14.00,2013-06-04 22:54:00,
2013-06-04 18:00:00,81.1,54.5,29.74,West,270,2.4,2.4,40,0.00,,---,0.00,VWS V14.00,2013-06-04 23:00:00,
2013-06-04 18:06:00,80.8,53.5,29.74,NNW,338,3.5,3.5,39,0.00,,---,0.00,VWS V14.00,2013-06-04 23:06:00,
2013-06-04 18:12:00,80.2,53.1,29.74,NW,315,2.7,2.7,39,0.00,,---,0.00,VWS V14.00,2013-06-04 23:12:00,
2013-06-04 18:17:00,80.2,53.8,29.74,NW,315,2.1,2.1,40,0.00,,---,0.00,VWS V14.00,2013-06-04 23:17:00,
2013-06-04 18:22:00,80.2,53.8,29.74,North,0,4.4,4.4,40,0.00,,---,0.00,VWS V14.00,2013-06-04 23:22:00,
2013-06-04 18:27:00,80.4,53.9,29.74,NNW,338,2.7,3.1,40,0.00,,---,0.00,VWS V14.00,2013-06-04 23:27:00,
2013-06-04 18:33:00,80.4,53.2,29.74,WNW,292,3.0,3.0,39,0.00,,---,0.00,VWS V14.00,2013-06-04 23:33:00,
2013-06-04 18:38:00,80.1,53.6,29.74,East,90,3.5,3.5,40,0.00,,---,0.00,VWS V14.00,2013-06-04 23:38:00,
2013-06-04 18:43:00,80.1,54.3,29.74,North,0,2.4,2.4,41,0.00,,---,0.00,VWS V14.00,2013-06-04 23:43:00,
2013-06-04 18:50:00,80.2,54.4,29.74,NNW,338,1.0,2.0,41,0.00,,---,0.00,VWS V14.00,2013-06-04 23:50:00,
2013-06-04 18:56:00,80.2,54.4,29.74,SSW,202,2.4,2.4,41,0.00,,---,0.00,VWS V14.00,2013-06-04 23:56:00,
2013-06-04 19:01:00,79.5,53.8,29.74,NW,315,2.4,2.4,41,0.00,,---,0.00,VWS V14.00,2013-06-05 00:01:00,
2013-06-04 19:06:00,79.0,53.3,29.74,North,0,2.4,2.7,41,0.00,,---,0.00,VWS V14.00,2013-06-05 00:06:00,
2013-06-04 19:12:00,78.4,53.5,29.74,NW,315,2.7,2.7,42,0.00,,---,0.00,VWS V14.00,2013-06-05 00:12:00,
2013-06-04 19:18:00,78.1,53.2,29.74,NW,315,2.4,2.4,42,0.00,,---,0.00,VWS V14.00,2013-06-05 00:18:00,
2013-06-04 19:23:00,77.7,53.5,29.74,SSW,202,2.1,2.1,43,0.00,,---,0.00,VWS V14.00,2013-06-05 00:23:00,
2013-06-04 19:29:00,77.5,53.9,29.74,NW,315,3.0,3.0,44,0.00,,---,0.00,VWS V14.00,2013-06-05 00:29:00,
2013-06-04 19:34:00,77.4,54.4,29.74,East,90,1.0,0.0,45,0.00,,---,0.00,VWS V14.00,2013-06-05 00:34:00,
2013-06-04 19:39:00,77.2,54.2,29.74,ESE,112,1.0,0.0,45,0.00,,---,0.00,VWS V14.00,2013-06-05 00:39:00,
2013-06-04 19:45:00,76.8,54.5,29.74,North,0,3.8,3.8,46,0.00,,---,0.00,VWS V14.00,2013-06-05 00:45:00,
2013-06-04 19:51:00,76.3,54.6,29.74,North,0,3.0,3.0,47,0.00,,---,0.00,VWS V14.00,2013-06-05 00:51:00,
2013-06-04 19:56:00,75.9,54.3,29.74,North,0,2.4,2.4,47,0.00,,---,0.00,VWS V14.00,2013-06-05 00:56:00,
2013-06-04 20:02:00,75.9,54.8,29.74,North,0,3.0,3.0,48,0.00,,---,0.00,VWS V14.00,2013-06-05 01:02:00,
2013-06-04 20:07:00,75.7,55.2,29.74,NW,315,3.5,3.5,49,0.00,,---,0.00,VWS V14.00,2013-06-05 01:07:00,
2013-06-04 20:13:00,75.7,55.2,29.74,NW,315,4.4,4.4,49,0.00,,---,0.00,VWS V14.00,2013-06-05 01:13:00,
2013-06-04 20:19:00,75.6,55.1,29.74,ESE,112,2.7,2.7,49,0.00,,---,0.00,VWS V14.00,2013-06-05 01:19:00,
2013-06-04 20:25:00,75.4,55.5,29.74,NE,45,3.0,3.0,50,0.00,,---,0.00,VWS V14.00,2013-06-05 01:25:00,
2013-06-04 20:32:00,75.2,55.8,29.74,East,90,3.0,3.0,51,0.00,,---,0.00,VWS V14.00,2013-06-05 01:32:00,
2013-06-04 20:37:00,75.0,55.7,29.74,NW,315,2.1,2.1,51,0.00,,---,0.00,VWS V14.00,2013-06-05 01:37:00,
2013-06-04 20:43:00,74.8,56.6,29.74,NW,315,3.0,3.0,53,0.00,,---,0.00,VWS V14.00,2013-06-05 01:43:00,
2013-06-04 20:50:00,74.7,56.4,29.74,NNW,338,2.4,2.4,53,0.00,,---,0.00,VWS V14.00,2013-06-05 01:50:00,
2013-06-04 20:55:00,74.5,56.2,29.74,NW,315,3.8,4.5,53,0.00,,---,0.00,VWS V14.00,2013-06-05 01:55:00,
2013-06-04 21:00:00,74.3,56.6,29.74,NNW,338,2.4,2.4,54,0.00,,---,0.00,VWS V14.00,2013-06-05 02:00:00,
2013-06-04 21:06:00,73.9,56.3,29.74,NW,315,2.4,2.4,54,0.00,,---,0.00,VWS V14.00,2013-06-05 02:06:00,
2013-06-04 21:11:00,73.8,56.6,29.74,NNE,22,2.4,2.4,55,0.00,,---,0.00,VWS V14.00,2013-06-05 02:11:00,
2013-06-04 21:16:00,73.6,56.4,29.76,North,0,2.4,2.4,55,0.00,,---,0.00,VWS V14.00,2013-06-05 02:16:00,
2013-06-04 21:22:00,73.6,56.4,29.76,NW,315,2.7,2.7,55,0.00,,---,0.00,VWS V14.00,2013-06-05 02:22:00,
2013-06-04 21:27:00,73.2,56.6,29.76,NNW,338,1.0,1.6,56,0.00,,---,0.00,VWS V14.00,2013-06-05 02:27:00,
2013-06-04 21:32:00,73.0,56.9,29.76,NE,45,1.0,0.0,57,0.00,,---,0.00,VWS V14.00,2013-06-05 02:32:00,
2013-06-04 21:37:00,73.0,57.4,29.76,North,0,1.0,1.1,58,0.00,,---,0.00,VWS V14.00,2013-06-05 02:37:00,
2013-06-04 21:43:00,72.9,57.2,29.76,North,0,1.0,1.3,58,0.00,,---,0.00,VWS V14.00,2013-06-05 02:43:00,
2013-06-04 21:49:00,72.7,57.1,29.76,North,0,3.0,3.0,58,0.00,,---,0.00,VWS V14.00,2013-06-05 02:49:00,
2013-06-04 21:54:00,72.3,57.2,29.76,North,0,2.4,2.4,59,0.00,,---,0.00,VWS V14.00,2013-06-05 02:54:00,
2013-06-04 21:59:00,72.1,57.5,29.76,North,0,2.7,2.7,60,0.00,,---,0.00,VWS V14.00,2013-06-05 02:59:00,
2013-06-04 22:05:00,71.8,57.6,29.76,NNE,22,2.7,2.7,61,0.00,,---,0.00,VWS V14.00,2013-06-05 03:05:00,
2013-06-04 22:10:00,71.6,57.5,29.76,NNE,22,2.4,2.4,61,0.00,,---,0.00,VWS V14.00,2013-06-05 03:10:00,
2013-06-04 22:15:00,71.4,57.7,29.76,NNE,22,2.1,2.1,62,0.00,,---,0.00,VWS V14.00,2013-06-05 03:15:00,
2013-06-04 22:21:00,71.2,57.6,29.76,North,0,3.0,3.0,62,0.00,,---,0.00,VWS V14.00,2013-06-05 03:21:00,
2013-06-04 22:26:00,71.1,57.8,29.76,North,0,1.0,0.0,63,0.00,,---,0.00,VWS V14.00,2013-06-05 03:26:00,
2013-06-04 22:32:00,70.9,57.7,29.76,North,0,1.0,0.0,63,0.00,,---,0.00,VWS V14.00,2013-06-05 03:32:00,
2013-06-04 22:38:00,70.7,57.9,29.76,North,0,1.0,0.0,64,0.00,,---,0.00,VWS V14.00,2013-06-05 03:38:00,
2013-06-04 22:43:00,70.5,57.8,29.76,North,0,1.0,0.0,64,0.00,,---,0.00,VWS V14.00,2013-06-05 03:43:00,
2013-06-04 22:48:00,70.3,58.0,29.76,North,0,1.0,1.0,65,0.00,,---,0.00,VWS V14.00,2013-06-05 03:48:00,
2013-06-04 22:54:00,70.3,58.0,29.76,North,0,1.0,0.0,65,0.00,,---,0.00,VWS V14.00,2013-06-05 03:54:00,
2013-06-04 22:59:00,70.2,58.3,29.76,North,0,3.0,3.0,66,0.00,,---,0.00,VWS V14.00,2013-06-05 03:59:00,
2013-06-04 23:02:00,70.2,58.3,29.76,North,0,2.7,2.7,66,0.00,,---,0.00,VWS V14.00,2013-06-05 04:02:00,
2013-06-04 23:03:00,70.2,58.3,29.76,North,0,3.0,3.0,66,0.00,,---,0.00,VWS V14.00,2013-06-05 04:03:00,
2013-06-04 23:06:00,70.2,58.3,29.76,North,0,1.0,1.1,66,0.00,,---,0.00,VWS V14.00,2013-06-05 04:06:00,
2013-06-04 23:07:00,70.2,58.3,29.76,North,0,2.1,2.1,66,0.00,,---,0.00,VWS V14.00,2013-06-05 04:07:00,
2013-06-04 23:13:00,70.2,58.3,29.76,North,0,1.0,1.1,66,0.00,,---,0.00,VWS V14.00,2013-06-05 04:13:00,
2013-06-04 23:18:00,70.2,58.3,29.76,North,0,1.0,0.0,66,0.00,,---,0.00,VWS V14.00,2013-06-05 04:18:00,
2013-06-04 23:23:00,70.0,58.1,29.76,North,0,1.0,0.0,66,0.00,,---,0.00,VWS V14.00,2013-06-05 04:23:00,
2013-06-04 23:29:00,70.0,58.5,29.76,North,0,1.0,1.0,67,0.00,,---,0.00,VWS V14.00,2013-06-05 04:29:00,
2013-06-04 23:35:00,70.0,58.5,29.76,North,0,1.0,0.0,67,0.00,,---,0.00,VWS V14.00,2013-06-05 04:35:00,
2013-06-04 23:41:00,70.0,59.0,29.76,North,0,1.0,0.0,68,0.00,,---,0.00,VWS V14.00,2013-06-05 04:41:00,
2013-06-04 23:47:00,70.0,59.0,29.76,North,0,1.0,0.0,68,0.00,,---,0.00,VWS V14.00,2013-06-05 04:47:00,
2013-06-04 23:52:00,70.0,59.0,29.76,North,0,1.0,0.0,68,0.00,,---,0.00,VWS V14.00,2013-06-05 04:52:00,
2013-06-04 23:57:00,70.0,59.0,29.76,North,0,1.0,0.0,68,0.00,,---,0.00,VWS V14.00,2013-06-05 04:57:00,